Kapuskasing, Canada
Current Conditions -  °F | °C
As of 1:00 AM on Sunday 26 Oct 2014 (Local Time) from CYYU Reporting Station
Light Rain Light Rain  
Wind Chill: 25°   Ceiling: 1000
Heat Index: 36°   Visibility: 7mi
Dew Point: 36°   Wind: 17mph
Humidity: 100%   Direction: 310°NW
Pressure: 29.49"   Gusts: NA
Location:  49.42°N, 82.43°W
Report Text: CYYU 260500Z 31015KT 7SM -RA OVC010 02/02 A2949 RMK SC8 SLP995
Loading
Personal Weather Stations






























Interactive Weather Map
Tropical Storm Tracking
New forecast layout! Learn more

10-Day Weather Forecast

Advertisements
Track Severe Weather on mobile